Terminal Aerodrome Forecast
Issued by NWS Bismarck, ND

Home | Current Version | Previous Version | Text Only | Print | Product List | Glossary On
Versions: 1 2 3 4 5 6 7 8 9 10 11 12 13 14 15
000
FTUS43 KBIS 251139
TAFISN
TAF
KISN 251139Z 2512/2612 05012KT P6SM OVC015
     FM251500 04013KT P6SM SCT025 BKN030
      TEMPO 2517/2521 BKN025
     FM260300 05007KT P6SM BKN040=

USA.gov is the U.S. government's official web portal to all federal, state and local government web resources and services.